Terminal Aerodrome Forecast
Issued by NWS Wilmington, NC

Home | Current Version | Previous Version | Text Only | Print | Product List | Glossary On
Versions: 1 2 3 4 5 6 7 8 9 10 11 12 13 14
742
FTUS42 KILM 241120
TAFLBT
TAF
KLBT 241120Z 2412/2512 00000KT 4SM BR SKC
      TEMPO 2412/2413 1SM BR
     FM241400 09003KT P6SM SCT050
     FM241800 12005KT P6SM SCT250
     FM250000 VRB03KT P6SM BKN250
     FM250800 00000KT 1/2SM FG VV002=

USA.gov is the U.S. government's official web portal to all federal, state and local government web resources and services.